Time;durP1;ratioP1;P1;durP2;ratioP2;P2;SDS_P1;SDS_P2;PMS_P1;PMS_P2;Temp;Humidity;BMP_temperature;BMP_pressure;BME280_temperature;BME280_humidity;BME280_pressure;Samples;Min_cycle;Max_cycle;Signal;HPM_P1;HPM_P2
2021/01/07 00:01:40;;;;;;;33.70;17.40;;;-0.70;99.90;;;;;;4975272;28;20037;-74
2021/01/07 00:04:07;;;;;;;37.45;18.15;;;-0.60;99.90;;;;;;4975585;28;20015;-74
2021/01/07 00:06:33;;;;;;;31.35;17.85;;;-0.80;99.90;;;;;;4975797;28;20127;-74
2021/01/07 00:08:59;;;;;;;34.35;18.10;;;-0.80;99.90;;;;;;4974321;28;20085;-74
2021/01/07 00:11:25;;;;;;;33.53;17.45;;;-0.90;99.90;;;;;;4975159;28;20023;-74
2021/01/07 00:13:51;;;;;;;37.15;18.60;;;-0.90;99.90;;;;;;4990215;28;20031;-74
2021/01/07 00:16:16;;;;;;;35.58;19.73;;;-0.90;99.90;;;;;;4975026;28;20251;-74
2021/01/07 00:18:42;;;;;;;39.10;18.77;;;-0.90;99.90;;;;;;4990252;28;20027;-74
2021/01/07 00:21:08;;;;;;;39.08;19.45;;;-0.90;99.90;;;;;;4974951;28;20034;-73
2021/01/07 00:23:34;;;;;;;32.97;17.50;;;-0.90;99.90;;;;;;4975324;28;20382;-74
2021/01/07 00:25:59;;;;;;;38.00;20.05;;;-1.00;99.90;;;;;;4975237;28;20113;-74
2021/01/07 00:28:25;;;;;;;32.97;18.10;;;-1.00;99.90;;;;;;4974951;28;20106;-74
2021/01/07 00:30:52;;;;;;;32.75;17.63;;;-1.00;99.90;;;;;;4990163;28;20023;-74
2021/01/07 00:33:19;;;;;;;34.05;18.23;;;-1.00;99.90;;;;;;4975442;28;20026;-74
2021/01/07 00:35:45;;;;;;;33.50;18.30;;;-1.00;99.90;;;;;;4975435;28;20030;-74
2021/01/07 00:38:11;;;;;;;33.30;19.70;;;-1.00;99.90;;;;;;4974949;28;20039;-73
2021/01/07 00:40:37;;;;;;;32.97;19.13;;;-1.00;99.90;;;;;;4974939;28;20056;-74
2021/01/07 00:43:03;;;;;;;37.55;19.58;;;-1.00;99.90;;;;;;4974729;28;20505;-74
2021/01/07 00:45:30;;;;;;;37.67;19.23;;;-1.10;99.90;;;;;;4989735;28;20062;-74
2021/01/07 00:47:56;;;;;;;38.40;19.88;;;-0.90;99.90;;;;;;4974523;28;20019;-74
2021/01/07 00:50:22;;;;;;;32.15;18.42;;;-0.80;99.90;;;;;;4974667;28;20022;-74
2021/01/07 00:52:48;;;;;;;38.72;19.77;;;-0.80;99.90;;;;;;4974471;28;20045;-74
2021/01/07 00:55:16;;;;;;;34.58;18.70;;;-0.80;99.90;;;;;;4974658;28;20203;-74
2021/01/07 00:57:42;;;;;;;40.67;20.30;;;-0.90;99.90;;;;;;4973689;28;20066;-74
2021/01/07 01:00:09;;;;;;;38.17;19.65;;;-1.00;99.90;;;;;;4974488;28;20394;-74
2021/01/07 01:02:35;;;;;;;37.65;18.85;;;-1.00;99.90;;;;;;4974452;28;20055;-73
2021/01/07 01:05:02;;;;;;;36.80;19.05;;;-0.90;99.90;;;;;;4989130;28;20419;-74
2021/01/07 01:07:28;;;;;;;34.58;18.60;;;-0.80;99.90;;;;;;4974499;28;20027;-74
2021/01/07 01:09:54;;;;;;;38.75;18.80;;;-0.70;99.90;;;;;;4974158;28;20026;-74
2021/01/07 01:12:20;;;;;;;39.83;19.52;;;-0.70;99.90;;;;;;4974318;28;20027;-74
2021/01/07 01:14:46;;;;;;;35.33;18.95;;;-0.70;99.90;;;;;;4972787;28;20027;-74
2021/01/07 01:17:12;;;;;;;36.22;18.70;;;-0.70;99.90;;;;;;4974479;28;20023;-74
2021/01/07 01:19:38;;;;;;;42.03;20.23;;;-0.80;99.90;;;;;;4974062;28;20025;-74
2021/01/07 01:22:04;;;;;;;32.35;17.75;;;-0.90;99.90;;;;;;4974255;28;20497;-74
2021/01/07 01:24:30;;;;;;;38.22;18.67;;;-1.00;99.90;;;;;;4988617;28;20034;-74
2021/01/07 01:26:57;;;;;;;40.40;19.75;;;-1.00;99.90;;;;;;4974046;28;20544;-74
2021/01/07 01:29:23;;;;;;;33.17;17.38;;;-0.90;99.90;;;;;;4973598;28;20038;-74
2021/01/07 01:31:49;;;;;;;37.08;20.30;;;-0.90;99.90;;;;;;4974315;28;20382;-74
2021/01/07 01:34:20;;;;;;;36.85;19.90;;;-0.90;99.90;;;;;;4972396;28;20019;-74
2021/01/07 01:36:45;;;;;;;38.47;19.67;;;-0.80;99.90;;;;;;4988855;28;20023;-74
2021/01/07 01:39:12;;;;;;;38.92;20.42;;;-0.80;99.90;;;;;;4973894;28;20497;-74
2021/01/07 01:41:42;;;;;;;41.10;19.70;;;-0.80;99.90;;;;;;4973473;28;20023;-74
2021/01/07 01:44:09;;;;;;;34.42;18.95;;;-0.80;99.90;;;;;;4973724;28;20091;-74
2021/01/07 01:46:35;;;;;;;37.90;20.77;;;-0.80;99.90;;;;;;4973562;28;20090;-74
2021/01/07 01:49:01;;;;;;;40.35;20.15;;;-0.80;99.90;;;;;;4973679;28;20101;-74
2021/01/07 01:51:34;;;;;;;38.97;21.88;;;-0.80;99.90;;;;;;4973271;28;20039;-74
2021/01/07 01:54:01;;;;;;;38.05;19.38;;;-0.80;99.90;;;;;;4972389;28;20031;-73
2021/01/07 01:56:28;;;;;;;43.70;21.75;;;-0.80;99.90;;;;;;4973216;28;20039;-74
2021/01/07 01:58:55;;;;;;;40.25;19.88;;;-0.80;99.90;;;;;;4973564;28;20026;-74
2021/01/07 02:01:21;;;;;;;36.22;21.35;;;-0.90;99.90;;;;;;4973157;28;20035;-74
2021/01/07 02:03:47;;;;;;;44.67;21.80;;;-0.90;99.90;;;;;;4988596;28;20049;-74
2021/01/07 02:06:15;;;;;;;41.55;20.98;;;-0.90;99.90;;;;;;4973124;28;20023;-74
2021/01/07 02:08:42;;;;;;;39.90;19.77;;;-0.90;99.90;;;;;;4988364;28;20110;-74
2021/01/07 02:11:10;;;;;;;37.90;19.73;;;-0.80;99.90;;;;;;4972411;28;20497;-74
2021/01/07 02:13:38;;;;;;;41.83;21.52;;;-1.00;99.90;;;;;;4973611;28;20390;-74
2021/01/07 02:16:04;;;;;;;40.97;21.42;;;-0.90;99.90;;;;;;4988475;28;20506;-74
2021/01/07 02:18:30;;;;;;;45.90;22.75;;;-0.90;99.90;;;;;;4973949;28;20389;-74
2021/01/07 02:21:01;;;;;;;37.83;20.58;;;-1.00;99.90;;;;;;4988496;28;20027;-73
2021/01/07 02:23:27;;;;;;;41.40;21.88;;;-0.90;99.90;;;;;;4973417;28;20031;-73
2021/01/07 02:25:53;;;;;;;45.08;23.48;;;-0.80;99.90;;;;;;4972973;28;20031;-74
2021/01/07 02:28:19;;;;;;;41.75;21.73;;;-0.80;99.90;;;;;;4972874;28;20033;-75
2021/01/07 02:30:46;;;;;;;40.40;20.77;;;-0.70;99.90;;;;;;4971673;28;20027;-75
2021/01/07 02:33:13;;;;;;;43.38;21.17;;;-0.80;99.90;;;;;;4972720;28;20345;-74
2021/01/07 02:35:38;;;;;;;42.80;22.50;;;-0.80;99.90;;;;;;4971774;28;20027;-74
2021/01/07 02:38:04;;;;;;;36.75;19.85;;;-0.80;99.90;;;;;;4972517;28;20045;-75
2021/01/07 02:40:31;;;;;;;40.70;21.48;;;-0.80;99.90;;;;;;4972673;28;20062;-74
2021/01/07 02:42:57;;;;;;;39.75;21.67;;;-0.80;99.90;;;;;;4987303;28;20030;-74
2021/01/07 02:45:22;;;;;;;44.92;22.13;;;-0.80;99.90;;;;;;4972545;28;20023;-74
2021/01/07 02:47:48;;;;;;;40.13;21.02;;;-0.80;99.90;;;;;;4972406;28;20026;-73
2021/01/07 02:50:14;;;;;;;41.83;21.33;;;-0.70;99.90;;;;;;4972409;28;20035;-74
2021/01/07 02:52:39;;;;;;;42.67;20.92;;;-0.70;99.90;;;;;;4987371;28;20030;-74
2021/01/07 02:55:06;;;;;;;38.70;20.70;;;-0.70;99.90;;;;;;4972454;28;20522;-74
2021/01/07 02:57:32;;;;;;;38.65;21.13;;;-0.70;99.90;;;;;;4972325;28;20177;-74
2021/01/07 02:59:58;;;;;;;40.22;22.10;;;-0.70;99.90;;;;;;4972319;28;20434;-74
2021/01/07 03:02:23;;;;;;;39.85;20.55;;;-0.70;99.90;;;;;;4972295;28;20026;-74
2021/01/07 03:04:49;;;;;;;45.58;22.20;;;-0.70;99.90;;;;;;4986983;28;20114;-74
2021/01/07 03:07:15;;;;;;;37.72;20.65;;;-0.70;99.90;;;;;;4971153;28;20026;-74
2021/01/07 03:09:44;;;;;;;42.20;21.55;;;-0.70;99.90;;;;;;4971989;28;20386;-73
2021/01/07 03:12:15;;;;;;;40.15;20.95;;;-0.60;99.90;;;;;;4970926;28;20030;-74
2021/01/07 03:14:41;;;;;;;36.33;20.52;;;-0.70;99.90;;;;;;4972033;28;20381;-74
2021/01/07 03:17:07;;;;;;;40.17;21.25;;;-0.70;99.90;;;;;;4987152;28;20027;-74
2021/01/07 03:19:33;;;;;;;39.55;21.77;;;-0.80;99.90;;;;;;4972187;28;20031;-74
2021/01/07 03:21:59;;;;;;;40.67;21.80;;;-0.80;99.90;;;;;;4971905;28;20019;-74
2021/01/07 03:24:24;;;;;;;34.70;19.90;;;-0.90;99.90;;;;;;4986755;28;20077;-74
2021/01/07 03:26:50;;;;;;;44.28;21.88;;;-0.90;99.90;;;;;;4972460;28;20065;-74
2021/01/07 03:29:16;;;;;;;40.50;20.23;;;-0.90;99.90;;;;;;4971637;28;20027;-74
2021/01/07 03:31:42;;;;;;;39.92;20.95;;;-0.90;99.90;;;;;;4972138;28;20030;-74
2021/01/07 03:34:08;;;;;;;38.92;22.02;;;-0.90;99.90;;;;;;4971770;28;20081;-74
2021/01/07 03:36:33;;;;;;;42.35;21.38;;;-0.90;99.90;;;;;;4986962;28;20438;-74
2021/01/07 03:38:59;;;;;;;43.88;21.98;;;-0.90;99.90;;;;;;4972156;28;20080;-74
2021/01/07 03:41:25;;;;;;;42.22;23.90;;;-0.90;99.90;;;;;;4971716;28;20421;-74
2021/01/07 03:43:50;;;;;;;39.72;21.30;;;-0.90;99.90;;;;;;4971989;28;20019;-74
2021/01/07 03:46:16;;;;;;;39.92;21.67;;;-0.90;99.90;;;;;;4971701;28;20026;-74
2021/01/07 03:48:42;;;;;;;38.15;21.20;;;-0.80;99.90;;;;;;4972127;28;20427;-75
2021/01/07 03:51:07;;;;;;;35.97;19.67;;;-0.80;99.90;;;;;;4986837;28;20035;-74
2021/01/07 03:53:33;;;;;;;36.90;20.27;;;-0.80;99.90;;;;;;4972527;28;20053;-74
2021/01/07 03:55:59;;;;;;;36.35;20.10;;;-0.80;99.90;;;;;;4971066;28;20034;-74
2021/01/07 03:58:24;;;;;;;38.20;20.50;;;-0.80;99.90;;;;;;4987374;28;20027;-73
2021/01/07 04:00:50;;;;;;;34.47;20.42;;;-0.80;99.90;;;;;;4971809;28;20023;-74
2021/01/07 04:03:16;;;;;;;35.50;20.08;;;-0.80;99.90;;;;;;4972047;28;20054;-74
2021/01/07 04:05:42;;;;;;;34.70;19.58;;;-0.80;99.90;;;;;;4986564;28;20031;-74
2021/01/07 04:08:07;;;;;;;36.60;19.95;;;-0.80;99.90;;;;;;4986839;28;20061;-74
2021/01/07 04:10:33;;;;;;;40.70;19.65;;;-0.70;99.90;;;;;;4971711;28;20430;-74
2021/01/07 04:12:59;;;;;;;36.15;19.38;;;-0.70;99.90;;;;;;4971619;28;20034;-74
2021/01/07 04:15:24;;;;;;;37.13;20.33;;;-0.60;99.90;;;;;;4971666;28;20037;-74
2021/01/07 04:17:50;;;;;;;44.03;22.05;;;-0.60;99.90;;;;;;4986428;28;20058;-74
2021/01/07 04:20:16;;;;;;;34.25;20.00;;;-0.60;99.90;;;;;;4971632;28;20052;-74
2021/01/07 04:22:41;;;;;;;35.47;20.17;;;-0.50;99.90;;;;;;4971346;28;20027;-74
2021/01/07 04:25:09;;;;;;;37.97;20.13;;;-0.50;99.90;;;;;;4986715;28;20498;-74
2021/01/07 04:27:34;;;;;;;36.63;19.98;;;-0.40;99.90;;;;;;4971296;28;20027;-73
2021/01/07 04:30:00;;;;;;;35.58;20.05;;;-0.30;99.90;;;;;;4970394;28;20563;-75
2021/01/07 04:32:26;;;;;;;44.13;21.40;;;-0.30;99.90;;;;;;4970130;28;20398;-74
2021/01/07 04:34:52;;;;;;;38.40;20.48;;;-0.20;99.90;;;;;;4974864;28;20482;-74
2021/01/07 04:37:17;;;;;;;39.70;19.23;;;0.00;99.90;;;;;;4974672;28;20057;-74
2021/01/07 04:39:43;;;;;;;36.63;18.77;;;0.00;99.90;;;;;;4974938;28;20451;-74
2021/01/07 04:42:09;;;;;;;35.25;19.05;;;0.10;99.90;;;;;;4974666;28;20049;-74
2021/01/07 04:44:37;;;;;;;37.90;19.90;;;-0.10;99.90;;;;;;4974862;28;20019;-73
2021/01/07 04:47:03;;;;;;;45.38;22.17;;;-0.10;99.90;;;;;;4974600;28;20018;-74
2021/01/07 04:49:29;;;;;;;41.35;20.45;;;-0.10;99.90;;;;;;4974673;28;20022;-74
2021/01/07 04:51:58;;;;;;;37.20;20.65;;;-0.20;99.90;;;;;;4974609;28;20034;-74
2021/01/07 04:54:24;;;;;;;38.08;21.17;;;-0.40;99.90;;;;;;4989282;28;20031;-74
2021/01/07 04:56:50;;;;;;;42.47;20.77;;;-0.50;99.90;;;;;;4973383;28;20383;-73
2021/01/07 04:59:16;;;;;;;35.88;20.08;;;-0.40;99.90;;;;;;4989278;28;20023;-73
2021/01/07 05:01:43;;;;;;;32.50;18.63;;;-0.50;99.90;;;;;;4989379;28;20515;-73
2021/01/07 05:04:09;;;;;;;38.45;20.73;;;-0.50;99.90;;;;;;4989171;28;20117;-74
2021/01/07 05:06:35;;;;;;;44.47;24.08;;;-0.50;99.90;;;;;;4989266;28;20038;-74
2021/01/07 05:09:06;;;;;;;37.38;20.15;;;-0.50;99.90;;;;;;4989112;28;20489;-74
2021/01/07 05:11:32;;;;;;;41.67;20.65;;;-0.50;99.90;;;;;;4974190;28;20031;-74
2021/01/07 05:14:02;;;;;;;39.58;20.33;;;-0.50;99.90;;;;;;4972848;28;20494;-74
2021/01/07 05:16:29;;;;;;;44.20;21.55;;;-0.50;99.90;;;;;;4975147;28;20031;-75
2021/01/07 05:18:55;;;;;;;46.78;23.60;;;-0.40;99.90;;;;;;4974312;28;20031;-75
2021/01/07 05:21:22;;;;;;;39.33;20.65;;;-0.40;99.90;;;;;;4988965;28;20023;-74
2021/01/07 05:23:49;;;;;;;39.95;20.60;;;-0.30;99.90;;;;;;4973989;28;20077;-74
2021/01/07 05:26:18;;;;;;;38.67;21.05;;;-0.10;99.90;;;;;;4974041;28;20536;-75
2021/01/07 05:28:49;;;;;;;37.30;19.75;;;-0.20;99.90;;;;;;4988950;28;20390;-74
2021/01/07 05:31:22;;;;;;;36.57;17.67;;;-0.30;99.90;;;;;;4988936;28;20038;-75
2021/01/07 05:33:48;;;;;;;34.97;19.38;;;-0.40;99.90;;;;;;4972898;28;20314;-74
2021/01/07 05:36:30;;;;;;;36.53;19.63;;;-0.40;99.90;;;;;;4973726;28;20023;-75
2021/01/07 05:39:03;;;;;;;33.72;18.80;;;-0.50;99.90;;;;;;4972875;28;20089;-74
2021/01/07 05:41:29;;;;;;;34.25;17.80;;;-0.50;99.90;;;;;;4973667;28;20062;-75
2021/01/07 05:44:04;;;;;;;38.00;19.05;;;-0.50;99.90;;;;;;4973952;28;20034;-75
2021/01/07 05:46:34;;;;;;;34.20;19.20;;;-0.50;99.90;;;;;;4974071;28;20023;-74
2021/01/07 05:49:00;;;;;;;31.92;18.40;;;-0.50;99.90;;;;;;4989250;28;20029;-74
2021/01/07 05:51:28;;;;;;;39.08;19.27;;;-0.40;99.90;;;;;;4973699;28;20398;-74
2021/01/07 05:53:59;;;;;;;37.03;17.52;;;-0.40;99.90;;;;;;4973777;28;20023;-74
2021/01/07 05:56:26;;;;;;;31.00;17.83;;;-0.40;99.90;;;;;;4988212;28;20419;-75
2021/01/07 05:58:55;;;;;;;34.72;18.38;;;-0.30;99.90;;;;;;4973576;28;20031;-73
2021/01/07 06:01:22;;;;;;;28.92;16.42;;;-0.40;99.90;;;;;;4987999;28;20386;-75
2021/01/07 06:03:53;;;;;;;33.67;17.75;;;-0.40;99.90;;;;;;4988235;28;20022;-75
2021/01/07 06:06:23;;;;;;;29.48;16.77;;;-0.40;99.90;;;;;;4973325;28;20053;-75
2021/01/07 06:08:54;;;;;;;31.88;18.38;;;-0.40;99.90;;;;;;4988442;28;20038;-74
2021/01/07 06:11:23;;;;;;;32.22;17.08;;;-0.50;99.90;;;;;;4973095;28;20505;-75
2021/01/07 06:13:51;;;;;;;38.45;19.92;;;-0.50;99.90;;;;;;4973268;28;20081;-75
2021/01/07 06:16:19;;;;;;;32.97;17.08;;;-0.70;99.90;;;;;;4972796;28;20034;-74
2021/01/07 06:18:45;;;;;;;34.63;17.67;;;-0.70;99.90;;;;;;4973057;28;20023;-75
2021/01/07 06:21:12;;;;;;;39.67;19.90;;;-0.70;99.90;;;;;;4972667;28;20077;-75
2021/01/07 06:23:44;;;;;;;30.13;17.02;;;-0.70;99.90;;;;;;4987916;28;20026;-75
2021/01/07 06:26:19;;;;;;;;;;;-0.70;99.90;;;;;;4973061;28;20434;-74
2021/01/07 06:28:49;;;;;;;34.78;19.27;;;-0.70;99.90;;;;;;4971790;28;19961;-74
2021/01/07 06:31:16;;;;;;;37.50;18.63;;;-0.70;99.90;;;;;;4971688;28;20034;-74
2021/01/07 06:33:49;;;;;;;35.63;19.15;;;-0.80;99.90;;;;;;4972972;28;20482;-75
2021/01/07 06:36:15;;;;;;;32.60;18.30;;;-0.70;99.90;;;;;;4972766;28;20037;-75
2021/01/07 06:38:49;;;;;;;36.45;17.63;;;-0.70;99.90;;;;;;4971199;28;20102;-74
2021/01/07 06:41:17;;;;;;;39.78;19.13;;;-0.70;99.90;;;;;;4972664;28;20134;-74
2021/01/07 06:43:45;;;;;;;39.88;18.88;;;-0.70;99.90;;;;;;4972423;28;20018;-74
2021/01/07 06:46:11;;;;;;;34.53;17.75;;;-0.70;99.90;;;;;;4971365;28;20027;-74
2021/01/07 06:48:41;;;;;;;37.55;17.48;;;-0.70;99.90;;;;;;4972292;28;20045;-74
2021/01/07 06:51:07;;;;;;;33.60;18.67;;;-0.80;99.90;;;;;;4987422;28;20041;-74
2021/01/07 06:53:37;;;;;;;31.88;17.58;;;-0.80;99.90;;;;;;4971040;28;20105;-75
2021/01/07 06:56:19;;;;;;;31.70;17.15;;;-0.80;99.90;;;;;;4986908;28;20030;-75
2021/01/07 06:58:45;;;;;;;;;;;-0.80;99.90;;;;;;4987426;28;20031;-74
2021/01/07 07:01:14;;;;;;;34.90;18.42;;;-0.70;99.90;;;;;;4972710;28;20059;-74
2021/01/07 07:03:47;;;;;;;36.70;18.65;;;-0.80;99.90;;;;;;4972191;28;20027;-74
2021/01/07 07:06:16;;;;;;;32.38;17.85;;;-0.80;99.90;;;;;;4987391;28;20478;-75
2021/01/07 07:08:47;;;;;;;30.20;17.15;;;-0.90;99.90;;;;;;4972177;28;20023;-75
2021/01/07 07:11:29;;;;;;;34.72;18.42;;;-0.90;99.90;;;;;;4972872;28;20077;-75
2021/01/07 07:13:58;;;;;;;32.92;16.65;;;-0.90;99.90;;;;;;4972666;28;20030;-74
2021/01/07 07:16:24;;;;;;;30.65;16.95;;;-0.80;99.90;;;;;;4987373;28;20030;-75
2021/01/07 07:18:55;;;;;;;33.40;19.65;;;-0.90;99.90;;;;;;4987128;28;20066;-74
2021/01/07 07:21:24;;;;;;;30.03;16.27;;;-0.80;99.90;;;;;;4972136;28;20023;-74
2021/01/07 07:23:51;;;;;;;32.08;18.65;;;-0.80;99.90;;;;;;4986902;28;20274;-75
2021/01/07 07:26:38;;;;;;;33.75;18.77;;;-0.80;99.90;;;;;;4972031;28;20038;-74
2021/01/07 07:29:18;;;;;;;36.25;18.60;;;-0.80;99.90;;;;;;4971808;28;20489;-75
2021/01/07 07:31:46;;;;;;;35.88;19.33;;;-0.80;99.90;;;;;;4972139;28;20532;-74
2021/01/07 07:34:13;;;;;;;35.85;19.80;;;-0.80;99.90;;;;;;4971743;28;20062;-74
2021/01/07 07:36:39;;;;;;;32.42;18.08;;;-0.70;99.90;;;;;;4972290;28;20058;-74
2021/01/07 07:39:06;;;;;;;32.72;18.55;;;-0.70;99.90;;;;;;4972046;28;20073;-74
2021/01/07 07:41:41;;;;;;;33.35;19.73;;;-0.70;99.90;;;;;;4970306;28;20463;-74
2021/01/07 07:44:07;;;;;;;40.20;18.10;;;-0.60;99.90;;;;;;4970697;28;20019;-74
2021/01/07 07:46:34;;;;;;;26.55;15.93;;;-0.60;99.90;;;;;;4986485;28;20027;-74
2021/01/07 07:49:02;;;;;;;27.25;16.23;;;-0.50;99.90;;;;;;4971967;28;20058;-75
2021/01/07 07:51:28;;;;;;;36.28;16.65;;;-0.50;99.90;;;;;;4994149;22;20043;-74
2021/01/07 07:54:09;;;;;;;30.52;16.50;;;-0.40;99.90;;;;;;4989988;28;20027;-74
2021/01/07 07:56:35;;;;;;;33.83;18.25;;;-0.30;99.90;;;;;;4989769;28;20034;-74
2021/01/07 07:59:03;;;;;;;32.53;17.38;;;-0.20;99.90;;;;;;4973531;28;20034;-75
2021/01/07 08:01:35;;;;;;;29.30;16.30;;;-0.20;99.90;;;;;;4990728;28;20038;-73
2021/01/07 08:04:01;;;;;;;35.65;16.50;;;-0.20;99.90;;;;;;4989806;28;20022;-74
2021/01/07 08:06:27;;;;;;;37.03;17.02;;;-0.10;99.90;;;;;;4990856;28;20145;-74
2021/01/07 08:09:07;;;;;;;27.08;14.57;;;-0.10;99.90;;;;;;4993275;28;20065;-74
2021/01/07 08:11:40;;;;;;;29.10;14.70;;;-0.10;99.90;;;;;;4993673;28;20108;-74
2021/01/07 08:14:09;;;;;;;23.85;13.02;;;-0.10;99.90;;;;;;4993513;28;20030;-74
2021/01/07 08:16:35;;;;;;;27.63;13.80;;;-0.20;99.90;;;;;;4993309;28;20518;-74
2021/01/07 08:19:01;;;;;;;28.17;14.85;;;-0.10;99.90;;;;;;4976723;28;20174;-74
2021/01/07 08:21:27;;;;;;;25.25;15.43;;;-0.10;99.90;;;;;;4974936;28;20078;-74
2021/01/07 08:24:08;;;;;;;24.38;13.88;;;-0.10;99.90;;;;;;4975341;28;20027;-75
2021/01/07 08:26:36;;;;;;;22.73;13.43;;;-0.10;99.90;;;;;;4973667;28;20407;-74
2021/01/07 08:29:02;;;;;;;26.13;14.23;;;-0.10;99.90;;;;;;4975073;28;20023;-75
2021/01/07 08:31:30;;;;;;;19.70;11.52;;;-0.10;99.90;;;;;;4973639;28;20027;-74
2021/01/07 08:33:57;;;;;;;23.60;14.35;;;-0.20;99.90;;;;;;4973849;28;20034;-75
2021/01/07 08:36:23;;;;;;;25.80;13.65;;;-0.20;99.90;;;;;;4977228;28;20022;-74
2021/01/07 08:38:54;;;;;;;24.00;12.88;;;-0.10;99.90;;;;;;4995925;28;20086;-74
2021/01/07 08:41:23;;;;;;;21.00;12.25;;;-0.10;99.90;;;;;;4957588;28;20486;-75
2021/01/07 08:43:54;;;;;;;25.08;13.63;;;-0.10;99.90;;;;;;4991602;28;20019;-75
2021/01/07 08:46:24;;;;;;;22.55;12.73;;;-0.10;99.90;;;;;;4993084;28;20390;-74
2021/01/07 08:49:14;;;;;;;25.75;13.60;;;-0.10;99.90;;;;;;4975259;28;20501;-74
2021/01/07 08:51:45;;;;;;;26.55;14.15;;;-0.10;99.90;;;;;;4973376;28;20517;-75
2021/01/07 08:54:16;;;;;;;18.48;10.35;;;-0.10;99.90;;;;;;4991421;28;20026;-75
2021/01/07 08:56:47;;;;;;;23.77;14.20;;;-0.10;99.90;;;;;;4992655;28;20038;-74
2021/01/07 08:59:33;;;;;;;19.98;12.60;;;-0.10;99.90;;;;;;4994321;28;20034;-75
2021/01/07 09:02:02;;;;;;;19.75;12.13;;;0.00;99.90;;;;;;4993117;28;20108;-74
2021/01/07 09:04:41;;;;;;;23.30;13.25;;;0.10;99.90;;;;;;4994471;28;20521;-73
2021/01/07 09:07:20;;;;;;;25.30;12.70;;;0.10;99.90;;;;;;4993423;28;20033;-75
2021/01/07 09:09:52;;;;;;;21.70;13.00;;;0.10;99.90;;;;;;5004107;28;20019;-75
2021/01/07 09:12:27;;;;;;;21.70;12.40;;;0.20;99.90;;;;;;4973138;28;20110;-73
2021/01/07 09:14:56;;;;;;;20.25;11.50;;;0.30;99.90;;;;;;4972717;28;20037;-75
2021/01/07 09:17:37;;;;;;;21.45;12.13;;;0.30;99.90;;;;;;4973000;28;20031;-75
2021/01/07 09:20:08;;;;;;;28.77;12.32;;;0.30;99.90;;;;;;4956200;28;20109;-75
2021/01/07 09:22:34;;;;;;;21.08;12.10;;;0.30;99.90;;;;;;4972729;28;20036;-74
2021/01/07 09:25:00;;;;;;;22.52;12.00;;;0.40;99.90;;;;;;4972362;28;20058;-74
2021/01/07 09:27:26;;;;;;;23.08;12.68;;;0.50;99.90;;;;;;4972897;28;20030;-73
2021/01/07 09:29:52;;;;;;;21.83;12.82;;;0.70;99.90;;;;;;4988325;28;20431;-73
2021/01/07 09:32:18;;;;;;;22.33;11.60;;;0.80;99.90;;;;;;4989024;28;20031;-74
2021/01/07 09:34:45;;;;;;;18.83;11.38;;;1.00;99.90;;;;;;4973813;28;20089;-74
2021/01/07 09:37:14;;;;;;;18.63;11.57;;;1.10;99.90;;;;;;4973682;28;20034;-74
2021/01/07 09:39:41;;;;;;;18.48;11.82;;;1.30;99.90;;;;;;4972752;28;20069;-73
2021/01/07 09:42:07;;;;;;;18.63;11.25;;;1.40;99.90;;;;;;4973497;28;20390;-74
2021/01/07 09:44:34;;;;;;;18.90;11.15;;;1.60;98.90;;;;;;4982436;28;20502;-74
2021/01/07 09:47:01;;;;;;;17.90;11.95;;;2.00;96.70;;;;;;4991712;28;20050;-74
2021/01/07 09:49:27;;;;;;;16.75;10.35;;;2.30;95.10;;;;;;4993203;28;20025;-74
2021/01/07 09:51:54;;;;;;;16.52;10.35;;;2.80;92.70;;;;;;5007559;28;20165;-74
2021/01/07 09:54:22;;;;;;;16.80;10.88;;;3.30;91.20;;;;;;5008004;28;20494;-74
2021/01/07 09:56:54;;;;;;;17.10;10.50;;;4.20;89.30;;;;;;4991268;28;20491;-74
2021/01/07 09:59:21;;;;;;;16.00;10.45;;;4.80;83.60;;;;;;4991758;28;20500;-74
2021/01/07 10:01:50;;;;;;;20.10;11.20;;;5.10;79.90;;;;;;4975025;28;20058;-75
2021/01/07 10:04:16;;;;;;;13.88;9.32;;;5.60;78.80;;;;;;4986383;28;20406;-74
2021/01/07 10:06:42;;;;;;;14.55;8.40;;;6.00;74.70;;;;;;4984854;28;20056;-73
2021/01/07 10:09:08;;;;;;;16.08;9.65;;;6.10;73.60;;;;;;4975636;28;20468;-74
2021/01/07 10:11:34;;;;;;;13.27;8.63;;;6.80;73.40;;;;;;4973486;28;20033;-74
2021/01/07 10:14:00;;;;;;;14.43;8.73;;;7.40;68.90;;;;;;4971119;28;20487;-73
2021/01/07 10:16:26;;;;;;;13.65;9.10;;;7.50;68.30;;;;;;4955458;28;20027;-75
2021/01/07 10:18:51;;;;;;;13.35;9.10;;;7.60;67.50;;;;;;4971492;28;20399;-73
2021/01/07 10:21:21;;;;;;;15.40;9.30;;;7.40;67.40;;;;;;4972422;28;20023;-74
2021/01/07 10:23:48;;;;;;;11.75;8.45;;;8.00;66.40;;;;;;4971312;28;20435;-73
2021/01/07 10:26:17;;;;;;;11.85;8.65;;;8.00;65.50;;;;;;4972538;28;20141;-73
2021/01/07 10:28:45;;;;;;;13.02;8.88;;;8.40;63.70;;;;;;4971972;28;20081;-73
2021/01/07 10:31:12;;;;;;;13.63;8.75;;;8.70;61.40;;;;;;4954346;28;20061;-74
2021/01/07 10:33:39;;;;;;;13.65;8.48;;;8.20;62.70;;;;;;4971027;28;20029;-74
2021/01/07 10:36:06;;;;;;;11.50;8.30;;;8.20;63.50;;;;;;4972525;28;20034;-73
2021/01/07 10:38:32;;;;;;;14.30;9.20;;;7.60;64.60;;;;;;4972401;28;20610;-74
2021/01/07 10:41:00;;;;;;;13.25;8.85;;;7.50;65.50;;;;;;4972903;28;20090;-73
2021/01/07 10:43:28;;;;;;;13.48;9.30;;;8.10;63.80;;;;;;4972021;28;20102;-73
2021/01/07 10:45:54;;;;;;;13.93;9.27;;;8.70;62.60;;;;;;4972429;28;20042;-73
2021/01/07 10:48:22;;;;;;;19.02;11.30;;;9.30;59.30;;;;;;4971298;28;20372;-74
2021/01/07 10:50:49;;;;;;;14.55;9.40;;;9.10;59.60;;;;;;4971642;28;20499;-73
2021/01/07 10:53:39;;;;;;;14.68;9.38;;;9.50;58.50;;;;;;4970852;28;20030;-73
2021/01/07 10:56:22;;;;;;;15.02;10.57;;;9.50;57.70;;;;;;4970650;28;20423;-73
2021/01/07 10:59:07;;;;;;;12.32;9.35;;;10.40;57.40;;;;;;4970973;28;20030;-73
2021/01/07 11:01:41;;;;;;;12.73;8.57;;;10.50;56.20;;;;;;4970370;28;20080;-74
2021/01/07 11:04:19;;;;;;;12.40;8.20;;;11.00;56.20;;;;;;4972027;28;20027;-73
2021/01/07 11:06:54;;;;;;;12.38;9.05;;;11.00;54.30;;;;;;4971778;28;20106;-74
2021/01/07 11:09:24;;;;;;;14.20;9.20;;;11.50;54.00;;;;;;4972023;28;20069;-73
2021/01/07 11:11:55;;;;;;;21.65;12.20;;;11.60;53.80;;;;;;4986470;28;20027;-73
2021/01/07 11:14:30;;;;;;;13.07;9.82;;;11.80;53.80;;;;;;4970639;28;20034;-73
2021/01/07 11:17:10;;;;;;;17.13;9.00;;;11.70;53.00;;;;;;4970489;28;20085;-73
2021/01/07 11:19:36;;;;;;;11.30;9.05;;;12.10;52.60;;;;;;4972063;28;20061;-74
2021/01/07 11:22:19;;;;;;;15.43;10.20;;;12.50;52.00;;;;;;4971453;28;20031;-74
2021/01/07 11:24:48;;;;;;;13.00;10.07;;;12.60;51.60;;;;;;4970137;28;20073;-74
2021/01/07 11:27:15;;;;;;;14.32;10.13;;;12.70;51.00;;;;;;4986340;28;20026;-73
2021/01/07 11:29:41;;;;;;;13.48;8.88;;;13.00;51.00;;;;;;4971652;28;20090;-74
2021/01/07 11:32:07;;;;;;;10.73;7.72;;;13.30;49.10;;;;;;4969941;28;20499;-73
2021/01/07 11:34:33;;;;;;;10.45;7.95;;;13.10;48.20;;;;;;4969902;28;20382;-73
2021/01/07 11:37:30;;;;;;;11.80;8.25;;;12.30;49.80;;;;;;4954543;28;20441;-73
2021/01/07 11:40:05;;;;;;;12.70;8.15;;;11.90;50.90;;;;;;4970322;28;20106;-74
2021/01/07 11:42:44;;;;;;;16.02;9.38;;;11.00;50.70;;;;;;4972115;28;20038;-74
2021/01/07 11:45:25;;;;;;;11.82;8.68;;;10.60;55.30;;;;;;4975550;28;20061;-74
2021/01/07 11:48:01;;;;;;;14.15;7.72;;;11.20;53.80;;;;;;4975686;28;20040;-74
2021/01/07 11:50:32;;;;;;;10.10;7.57;;;11.30;52.30;;;;;;4973706;28;20030;-73
2021/01/07 11:53:00;;;;;;;12.50;8.07;;;10.70;51.60;;;;;;4974098;28;20035;-74
2021/01/07 11:55:25;;;;;;;11.13;7.97;;;10.70;53.20;;;;;;4973746;28;20038;-74
2021/01/07 11:57:54;;;;;;;11.50;8.20;;;11.20;52.60;;;;;;4974507;28;20035;-74
2021/01/07 12:00:21;;;;;;;12.27;9.07;;;11.30;52.50;;;;;;4973995;28;20077;-74
2021/01/07 12:02:49;;;;;;;11.15;7.80;;;11.00;52.60;;;;;;4974164;28;20023;-74
2021/01/07 12:05:18;;;;;;;16.52;12.38;;;10.90;52.90;;;;;;4975233;28;20422;-74
2021/01/07 12:08:03;;;;;;;11.68;8.27;;;10.50;53.50;;;;;;4975134;28;20066;-74
2021/01/07 12:10:30;;;;;;;12.75;8.73;;;10.60;54.20;;;;;;4974824;28;20499;-74
2021/01/07 12:13:31;;;;;;;14.18;9.10;;;10.30;54.20;;;;;;4957592;28;20062;-74
2021/01/07 12:15:57;;;;;;;16.15;9.77;;;9.90;55.60;;;;;;4974972;28;20070;-74
2021/01/07 12:18:26;;;;;;;18.00;9.85;;;9.70;56.20;;;;;;4957797;28;20035;-75
2021/01/07 12:20:52;;;;;;;13.57;9.13;;;9.00;57.00;;;;;;4973725;28;20490;-74
2021/01/07 12:23:19;;;;;;;15.05;10.88;;;8.30;58.90;;;;;;4974050;28;20027;-73
2021/01/07 12:25:47;;;;;;;19.45;11.48;;;7.60;60.10;;;;;;4974731;28;20022;-74
2021/01/07 12:28:19;;;;;;;24.73;13.60;;;6.60;64.60;;;;;;4975294;28;20542;-73
2021/01/07 12:30:47;;;;;;;26.88;13.40;;;6.40;67.70;;;;;;4973732;28;20410;-73
2021/01/07 12:33:41;;;;;;;24.17;13.98;;;6.00;69.20;;;;;;4973823;28;20034;-74
2021/01/07 12:36:51;;;;;;;20.05;11.15;;;5.90;69.10;;;;;;4973406;28;20479;-73
2021/01/07 12:39:51;;;;;;;33.40;17.30;;;5.90;69.80;;;;;;4973523;28;20058;-73